Time;durP1;ratioP1;P1;durP2;ratioP2;P2;SDS_P1;SDS_P2;PMS_P1;PMS_P2;Temp;Humidity;BMP_temperature;BMP_pressure;BME280_temperature;BME280_humidity;BME280_pressure;Samples;Min_cycle;Max_cycle;Signal;HPM_P1;HPM_P2
2023/03/25 00:01:56;;;;;;;5.93;2.92;;;;;;;;;;5074746;28;20052;-64
2023/03/25 00:04:26;;;;;;;4.97;2.88;;;;;;;;;;5074624;28;20495;-64
2023/03/25 00:06:56;;;;;;;7.28;3.20;;;;;;;;;;5074620;28;20051;-65
2023/03/25 00:09:26;;;;;;;4.93;2.83;;;;;;;;;;5022782;28;20704;-64
2023/03/25 00:11:56;;;;;;;4.82;3.13;;;;;;;;;;5074395;28;20051;-65
2023/03/25 00:14:26;;;;;;;4.72;2.80;;;;;;;;;;5039244;28;20059;-65
2023/03/25 00:16:56;;;;;;;4.22;2.72;;;;;;;;;;5073562;28;20044;-65
2023/03/25 00:19:26;;;;;;;4.50;2.15;;;;;;;;;;5074241;28;20041;-65
2023/03/25 00:21:56;;;;;;;5.93;2.75;;;;;;;;;;5022687;28;20063;-65
2023/03/25 00:24:26;;;;;;;8.50;2.65;;;;;;;;;;5074062;28;20048;-65
2023/03/25 00:26:55;;;;;;;3.95;2.83;;;;;;;;;;5074180;28;20071;-65
2023/03/25 00:29:25;;;;;;;5.68;2.60;;;;;;;;;;5051565;28;20088;-64
2023/03/25 00:31:55;;;;;;;9.18;3.25;;;;;;;;;;5051718;28;20057;-65
2023/03/25 00:34:25;;;;;;;6.78;2.70;;;;;;;;;;5014536;28;20072;-65
2023/03/25 00:36:55;;;;;;;5.57;2.28;;;;;;;;;;4998647;28;20453;-64
2023/03/25 00:39:25;;;;;;;9.65;3.00;;;;;;;;;;4991902;28;20516;-64
2023/03/25 00:41:56;;;;;;;6.90;2.92;;;;;;;;;;4943773;28;20533;-65
2023/03/25 00:44:25;;;;;;;6.32;2.95;;;;;;;;;;4992057;28;20054;-64
2023/03/25 00:46:56;;;;;;;5.97;2.58;;;;;;;;;;4992569;28;20050;-65
2023/03/25 00:49:27;;;;;;;7.57;3.10;;;;;;;;;;4991981;28;20491;-64
2023/03/25 00:51:57;;;;;;;8.15;3.30;;;;;;;;;;4940235;28;20439;-65
2023/03/25 00:54:27;;;;;;;5.75;3.13;;;;;;;;;;4972494;28;20070;-64
2023/03/25 00:56:56;;;;;;;5.53;2.88;;;;;;;;;;4972555;28;20162;-65
2023/03/25 00:59:27;;;;;;;6.65;2.85;;;;;;;;;;4972327;28;20058;-66
2023/03/25 01:02:01;;;;;;;5.35;3.40;;;;;;;;;;4953010;28;20102;-65
2023/03/25 01:04:33;;;;;;;6.30;3.42;;;;;;;;;;4914780;29;20531;-64
2023/03/25 01:07:04;;;;;;;9.25;3.30;;;;;;;;;;4914845;29;20105;-65
2023/03/25 01:09:33;;;;;;;8.55;3.30;;;;;;;;;;4915926;29;20052;-65
2023/03/25 01:12:03;;;;;;;5.90;2.80;;;;;;;;;;4952725;29;20460;-66
2023/03/25 01:14:33;;;;;;;6.45;3.25;;;;;;;;;;4952671;29;20067;-65
2023/03/25 01:17:03;;;;;;;6.80;3.55;;;;;;;;;;4952586;29;20120;-65
2023/03/25 01:19:33;;;;;;;7.57;3.70;;;;;;;;;;4952823;29;20055;-64
2023/03/25 01:22:04;;;;;;;6.38;3.40;;;;;;;;;;4952727;29;20063;-64
2023/03/25 01:24:34;;;;;;;11.50;3.40;;;;;;;;;;4952657;29;20084;-64
2023/03/25 01:27:04;;;;;;;6.10;2.78;;;;;;;;;;4936379;29;20534;-64
2023/03/25 01:29:34;;;;;;;4.97;2.72;;;;;;;;;;4933161;28;20106;-64
2023/03/25 01:32:05;;;;;;;8.30;3.42;;;;;;;;;;4991306;28;20445;-65
2023/03/25 01:34:37;;;;;;;12.60;3.58;;;;;;;;;;4990994;28;20057;-65
2023/03/25 01:37:08;;;;;;;8.35;3.75;;;;;;;;;;4971518;28;20051;-65
2023/03/25 01:39:38;;;;;;;6.72;3.53;;;;;;;;;;4971794;28;20395;-64
2023/03/25 01:42:10;;;;;;;12.40;3.00;;;;;;;;;;4981567;28;20406;-64
2023/03/25 01:44:43;;;;;;;5.50;3.75;;;;;;;;;;4991102;28;20158;-64
2023/03/25 01:47:14;;;;;;;9.63;2.88;;;;;;;;;;4981138;28;20418;-64
2023/03/25 01:49:45;;;;;;;8.20;3.05;;;;;;;;;;4950134;28;20430;-64
2023/03/25 01:52:24;;;;;;;12.27;3.03;;;;;;;;;;4991054;28;20050;-64
2023/03/25 01:54:55;;;;;;;5.88;3.45;;;;;;;;;;4990882;28;20054;-64
2023/03/25 01:57:25;;;;;;;8.85;3.05;;;;;;;;;;4951925;28;20086;-64
2023/03/25 01:59:55;;;;;;;6.13;2.67;;;;;;;;;;4952174;28;20066;-64
2023/03/25 02:02:33;;;;;;;12.35;2.92;;;;;;;;;;4920199;29;20051;-64
2023/03/25 02:05:06;;;;;;;;;;;;;;;;;;4952557;29;20539;-64
2023/03/25 02:07:41;;;;;;;5.32;3.10;;;;;;;;;;4932588;29;19938;-65
2023/03/25 02:10:12;;;;;;;6.20;2.63;;;;;;;;;;4901047;29;20059;-64
2023/03/25 02:12:44;;;;;;;5.72;4.03;;;;;;;;;;4932668;29;20082;-64
2023/03/25 02:15:17;;;;;;;7.97;2.65;;;;;;;;;;4896823;28;20515;-64
2023/03/25 02:18:10;;;;;;;10.82;2.70;;;;;;;;;;4951753;28;20419;-64
2023/03/25 02:21:12;;;;;;;8.38;3.08;;;;;;;;;;4920037;29;20059;-64
2023/03/25 02:24:28;;;;;;;9.68;3.35;;;;;;;;;;4913343;29;20156;-64
2023/03/25 02:27:26;;;;;;;7.78;2.90;;;;;;;;;;4913621;29;20059;-64
2023/03/25 02:30:05;;;;;;;7.30;2.83;;;;;;;;;;4875838;29;20049;-64
2023/03/25 02:33:00;;;;;;;9.15;3.00;;;;;;;;;;4875731;29;20053;-64
2023/03/25 02:35:57;;;;;;;7.35;3.00;;;;;;;;;;4885554;29;20071;-64
2023/03/25 02:38:40;;;;;;;9.63;3.10;;;;;;;;;;4912976;29;20629;-64
2023/03/25 02:41:25;;;;;;;5.65;3.20;;;;;;;;;;4875737;29;20053;-64
2023/03/25 02:44:13;;;;;;;5.82;3.15;;;;;;;;;;4856906;29;20064;-64
2023/03/25 02:46:50;;;;;;;8.25;4.28;;;;;;;;;;4856963;29;20068;-64
2023/03/25 02:49:31;;;;;;;9.25;3.50;;;;;;;;;;4856890;29;20049;-64
2023/03/25 02:52:14;;;;;;;9.68;3.92;;;;;;;;;;4857485;29;20066;-64
2023/03/25 02:54:46;;;;;;;6.28;3.30;;;;;;;;;;4860482;29;20107;-64
2023/03/25 02:57:19;;;;;;;6.28;3.50;;;;;;;;;;4860075;29;20060;-64
2023/03/25 02:59:52;;;;;;;5.18;3.13;;;;;;;;;;4833981;29;20057;-64
2023/03/25 03:02:26;;;;;;;12.00;2.75;;;;;;;;;;4802456;29;20063;-64
2023/03/25 03:04:56;;;;;;;8.30;3.33;;;;;;;;;;4802232;29;20075;-65
2023/03/25 03:07:38;;;;;;;5.30;3.08;;;;;;;;;;4817743;29;20072;-64
2023/03/25 03:10:24;;;;;;;7.10;2.50;;;;;;;;;;4797476;29;20054;-64
2023/03/25 03:13:26;;;;;;;5.70;2.30;;;;;;;;;;4808411;29;20054;-64
2023/03/25 03:16:16;;;;;;;6.30;3.03;;;;;;;;;;4838480;29;20724;-64
2023/03/25 03:19:37;;;;;;;8.13;2.63;;;;;;;;;;4818815;29;20071;-64
2023/03/25 03:22:28;;;;;;;7.45;2.55;;;;;;;;;;4821273;29;20604;-64
2023/03/25 03:25:14;;;;;;;7.25;3.60;;;;;;;;;;4856875;29;20065;-64
2023/03/25 03:27:55;;;;;;;5.88;2.30;;;;;;;;;;4841532;29;20419;-64
2023/03/25 03:30:45;;;;;;;15.48;3.90;;;;;;;;;;4841253;29;20060;-64
2023/03/25 03:33:34;;;;;;;7.63;3.75;;;;;;;;;;4811666;29;20054;-63
2023/03/25 03:36:08;;;;;;;8.95;4.50;;;;;;;;;;4856793;29;20057;-64
2023/03/25 03:38:42;;;;;;;8.40;4.20;;;;;;;;;;4893325;29;20545;-63
2023/03/25 03:41:17;;;;;;;6.55;3.88;;;;;;;;;;4909480;29;20509;-64
2023/03/25 03:44:10;;;;;;;12.13;3.10;;;;;;;;;;4908749;29;20158;-63
2023/03/25 03:46:48;;;;;;;9.27;3.83;;;;;;;;;;4895165;29;20060;-63
2023/03/25 03:49:22;;;;;;;7.68;3.15;;;;;;;;;;4931985;29;20056;-64
2023/03/25 03:52:11;;;;;;;10.43;3.50;;;;;;;;;;4935417;29;20059;-63
2023/03/25 03:54:48;;;;;;;6.50;3.05;;;;;;;;;;4951059;29;20529;-64
2023/03/25 03:57:40;;;;;;;6.65;3.22;;;;;;;;;;4975184;28;20053;-63
2023/03/25 04:00:17;;;;;;;9.82;4.30;;;;;;;;;;5034960;28;20056;-63
2023/03/25 04:02:46;;;;;;;7.03;3.25;;;;;;;;;;5034807;28;20049;-63
2023/03/25 04:05:18;;;;;;;10.60;3.85;;;;;;;;;;5016066;28;20058;-64
2023/03/25 04:07:55;;;;;;;8.50;3.70;;;;;;;;;;5016608;28;20054;-63
2023/03/25 04:10:57;;;;;;;8.68;2.92;;;;;;;;;;5032476;28;20413;-64
2023/03/25 04:13:35;;;;;;;14.60;4.07;;;;;;;;;;5016382;28;20501;-64
2023/03/25 04:16:06;;;;;;;8.77;4.10;;;;;;;;;;5034530;28;20045;-64
2023/03/25 04:18:36;;;;;;;13.30;3.83;;;;;;;;;;5016002;28;20508;-64
2023/03/25 04:21:06;;;;;;;12.07;4.10;;;;;;;;;;5015838;28;20057;-63
2023/03/25 04:23:38;;;;;;;8.30;4.00;;;;;;;;;;5034468;28;20034;-64
2023/03/25 04:26:08;;;;;;;6.68;4.00;;;;;;;;;;5034580;28;20049;-63
2023/03/25 04:28:40;;;;;;;8.10;3.60;;;;;;;;;;5034586;28;20053;-63
2023/03/25 04:31:14;;;;;;;7.90;3.38;;;;;;;;;;4999220;28;20049;-64
2023/03/25 04:33:49;;;;;;;10.23;3.15;;;;;;;;;;4999195;28;20060;-63
2023/03/25 04:36:19;;;;;;;7.18;3.30;;;;;;;;;;5032365;28;20048;-65
2023/03/25 04:38:51;;;;;;;7.32;3.33;;;;;;;;;;5054348;28;20048;-65
2023/03/25 04:41:25;;;;;;;7.68;3.00;;;;;;;;;;5053983;28;20370;-64
2023/03/25 04:43:54;;;;;;;7.18;4.13;;;;;;;;;;5054071;28;20058;-64
2023/03/25 04:46:25;;;;;;;5.82;3.38;;;;;;;;;;5018703;28;20530;-64
2023/03/25 04:48:55;;;;;;;6.15;3.08;;;;;;;;;;5053738;28;20044;-64
2023/03/25 04:51:25;;;;;;;6.30;3.95;;;;;;;;;;5035615;28;20526;-65
2023/03/25 04:53:55;;;;;;;5.80;3.63;;;;;;;;;;5051619;28;20057;-64
2023/03/25 04:56:25;;;;;;;7.53;4.13;;;;;;;;;;5053838;28;20511;-65
2023/03/25 04:58:55;;;;;;;9.70;3.13;;;;;;;;;;5053618;28;20052;-64
2023/03/25 05:01:30;;;;;;;9.13;3.20;;;;;;;;;;5034252;28;20519;-63
2023/03/25 05:04:04;;;;;;;7.15;4.03;;;;;;;;;;5053675;28;20040;-64
2023/03/25 05:06:37;;;;;;;11.82;3.60;;;;;;;;;;5034781;28;20041;-64
2023/03/25 05:09:14;;;;;;;7.57;3.17;;;;;;;;;;5053548;28;20044;-63
2023/03/25 05:11:45;;;;;;;7.57;3.67;;;;;;;;;;4986680;28;20052;-64
2023/03/25 05:14:17;;;;;;;8.30;3.47;;;;;;;;;;5018353;28;20057;-63
2023/03/25 05:16:47;;;;;;;8.13;3.50;;;;;;;;;;5053486;28;20041;-63
2023/03/25 05:19:18;;;;;;;8.15;4.07;;;;;;;;;;5035025;28;20053;-64
2023/03/25 05:21:47;;;;;;;15.20;4.28;;;;;;;;;;5053193;28;20048;-63
2023/03/25 05:24:18;;;;;;;8.60;4.32;;;;;;;;;;5053014;28;20044;-64
2023/03/25 05:26:49;;;;;;;9.13;4.00;;;;;;;;;;5053330;28;20048;-63
2023/03/25 05:29:18;;;;;;;7.35;3.88;;;;;;;;;;5051823;28;20048;-64
2023/03/25 05:31:48;;;;;;;14.75;4.10;;;;;;;;;;5053273;28;20045;-65
2023/03/25 05:34:19;;;;;;;6.63;3.25;;;;;;;;;;5017605;28;20434;-64
2023/03/25 05:36:49;;;;;;;8.55;3.70;;;;;;;;;;5021147;28;20060;-64
2023/03/25 05:39:19;;;;;;;9.23;3.80;;;;;;;;;;5037470;28;20496;-64
2023/03/25 05:41:49;;;;;;;9.75;4.05;;;;;;;;;;5072785;28;20511;-64
2023/03/25 05:44:19;;;;;;;9.13;3.97;;;;;;;;;;5055316;28;20052;-64
2023/03/25 05:46:48;;;;;;;9.80;3.28;;;;;;;;;;5020404;28;20053;-64
2023/03/25 05:49:18;;;;;;;7.22;3.70;;;;;;;;;;5072500;28;20511;-64
2023/03/25 05:51:52;;;;;;;7.93;3.60;;;;;;;;;;5072610;28;20046;-64
2023/03/25 05:54:27;;;;;;;5.50;3.17;;;;;;;;;;5072540;28;20396;-64
2023/03/25 05:56:57;;;;;;;8.85;3.75;;;;;;;;;;5072609;28;20055;-64
2023/03/25 05:59:27;;;;;;;8.93;3.70;;;;;;;;;;5072687;28;20059;-63
2023/03/25 06:01:57;;;;;;;8.30;3.50;;;;;;;;;;5072303;28;20044;-63
2023/03/25 06:04:26;;;;;;;8.43;3.40;;;;;;;;;;5072459;28;20115;-64
2023/03/25 06:06:56;;;;;;;8.38;3.67;;;;;;;;;;5072617;28;20060;-63
2023/03/25 06:09:29;;;;;;;11.60;3.58;;;;;;;;;;5072290;28;20511;-63
2023/03/25 06:12:00;;;;;;;12.88;3.50;;;;;;;;;;5021691;28;20061;-63
2023/03/25 06:14:30;;;;;;;9.00;4.28;;;;;;;;;;4973632;28;20052;-64
2023/03/25 06:17:01;;;;;;;12.45;4.55;;;;;;;;;;5070093;28;20056;-63
2023/03/25 06:19:31;;;;;;;6.32;3.00;;;;;;;;;;5072123;28;20365;-63
2023/03/25 06:22:00;;;;;;;6.60;4.30;;;;;;;;;;5053275;28;20061;-64
2023/03/25 06:24:30;;;;;;;12.40;4.20;;;;;;;;;;5021593;28;20060;-63
2023/03/25 06:27:00;;;;;;;10.57;3.70;;;;;;;;;;5020236;28;20056;-63
2023/03/25 06:29:30;;;;;;;7.90;3.90;;;;;;;;;;5019737;28;20060;-64
2023/03/25 06:32:00;;;;;;;8.50;3.80;;;;;;;;;;5072018;28;20044;-64
2023/03/25 06:34:31;;;;;;;8.30;2.97;;;;;;;;;;5019446;28;20382;-64
2023/03/25 06:37:01;;;;;;;6.80;3.72;;;;;;;;;;5071874;28;20056;-66
2023/03/25 06:39:32;;;;;;;7.40;3.17;;;;;;;;;;5071696;28;20048;-66
2023/03/25 06:42:06;;;;;;;9.05;2.85;;;;;;;;;;4997249;28;20045;-64
2023/03/25 06:45:03;;;;;;;6.65;3.03;;;;;;;;;;5010023;28;20058;-66
2023/03/25 06:47:56;;;;;;;9.30;3.53;;;;;;;;;;4945688;28;20046;-64
2023/03/25 06:50:27;;;;;;;6.57;3.47;;;;;;;;;;4970765;28;20557;-64
2023/03/25 06:52:57;;;;;;;10.55;3.20;;;;;;;;;;4970423;28;20046;-64
2023/03/25 06:55:27;;;;;;;8.23;3.35;;;;;;;;;;4970594;28;20384;-64
2023/03/25 06:57:56;;;;;;;8.02;3.45;;;;;;;;;;4970582;28;20054;-64
2023/03/25 07:00:27;;;;;;;11.38;3.50;;;;;;;;;;4970965;28;20577;-64
2023/03/25 07:03:00;;;;;;;9.05;2.85;;;;;;;;;;4970473;28;20547;-65
2023/03/25 07:05:30;;;;;;;6.65;3.70;;;;;;;;;;4970519;28;20066;-66
2023/03/25 07:08:00;;;;;;;10.48;3.83;;;;;;;;;;4970439;28;20047;-64
2023/03/25 07:10:31;;;;;;;7.15;4.05;;;;;;;;;;4938481;28;20054;-64
2023/03/25 07:13:01;;;;;;;10.52;3.10;;;;;;;;;;4954190;28;20058;-64
2023/03/25 07:15:30;;;;;;;17.10;3.78;;;;;;;;;;4970362;28;20062;-64
2023/03/25 07:18:00;;;;;;;8.93;3.55;;;;;;;;;;4970381;28;20499;-65
2023/03/25 07:20:30;;;;;;;5.50;2.90;;;;;;;;;;4922715;29;20055;-64
2023/03/25 07:23:00;;;;;;;8.18;3.05;;;;;;;;;;4989543;28;20065;-64
2023/03/25 07:25:30;;;;;;;7.20;3.10;;;;;;;;;;4985777;28;20055;-64
2023/03/25 07:27:59;;;;;;;6.88;3.08;;;;;;;;;;5057921;28;20393;-64
2023/03/25 07:30:32;;;;;;;10.90;2.67;;;;;;;;;;5012837;28;20050;-64
2023/03/25 07:33:02;;;;;;;9.48;3.22;;;;;;;;;;4965691;28;20061;-65
2023/03/25 07:35:33;;;;;;;7.25;3.35;;;;;;;;;;4980240;28;20050;-64
2023/03/25 07:38:03;;;;;;;6.90;3.30;;;;;;;;;;4997036;28;20050;-64
2023/03/25 07:40:33;;;;;;;6.45;3.40;;;;;;;;;;4996793;28;20061;-64
2023/03/25 07:43:03;;;;;;;8.82;3.75;;;;;;;;;;4965753;28;20054;-66
2023/03/25 07:45:44;;;;;;;11.00;3.80;;;;;;;;;;4968982;28;20054;-66
2023/03/25 07:48:15;;;;;;;8.88;4.60;;;;;;;;;;4980449;28;20434;-64
2023/03/25 07:50:45;;;;;;;6.28;4.00;;;;;;;;;;4964222;28;20805;-64
2023/03/25 07:53:15;;;;;;;10.70;3.85;;;;;;;;;;4996474;28;20050;-65
2023/03/25 07:55:49;;;;;;;9.55;4.10;;;;;;;;;;4949033;28;20746;-64
2023/03/25 07:58:20;;;;;;;9.40;4.25;;;;;;;;;;5012867;28;20053;-64
2023/03/25 08:00:50;;;;;;;10.20;4.00;;;;;;;;;;4996031;28;20572;-64
2023/03/25 08:03:19;;;;;;;8.23;4.20;;;;;;;;;;4996299;28;20540;-64
2023/03/25 08:05:50;;;;;;;9.10;4.15;;;;;;;;;;4996779;28;20061;-64
2023/03/25 08:08:20;;;;;;;8.60;3.85;;;;;;;;;;5013827;28;20091;-64
2023/03/25 08:10:50;;;;;;;12.23;3.67;;;;;;;;;;5074546;28;20055;-64
2023/03/25 08:13:20;;;;;;;7.30;3.97;;;;;;;;;;5022898;28;20044;-64
2023/03/25 08:15:50;;;;;;;7.38;4.07;;;;;;;;;;5022608;28;20052;-64
2023/03/25 08:18:21;;;;;;;8.50;3.30;;;;;;;;;;5024475;28;20605;-64
2023/03/25 08:20:50;;;;;;;8.45;4.45;;;;;;;;;;5074370;28;20044;-64
2023/03/25 08:23:22;;;;;;;10.50;4.05;;;;;;;;;;5074391;28;20040;-65
2023/03/25 08:25:52;;;;;;;6.18;4.28;;;;;;;;;;5074398;28;20041;-64
2023/03/25 08:28:22;;;;;;;7.13;3.55;;;;;;;;;;5022738;28;20060;-64
2023/03/25 08:30:55;;;;;;;8.30;3.42;;;;;;;;;;5038935;28;20051;-64
2023/03/25 08:33:33;;;;;;;8.15;3.70;;;;;;;;;;5022633;28;20056;-65
2023/03/25 08:36:04;;;;;;;7.65;3.80;;;;;;;;;;5050339;28;20045;-64
2023/03/25 08:38:34;;;;;;;5.97;3.85;;;;;;;;;;5003582;28;20068;-64
2023/03/25 08:41:04;;;;;;;6.05;3.30;;;;;;;;;;5051765;28;20053;-64
2023/03/25 08:43:34;;;;;;;6.97;3.75;;;;;;;;;;5034883;28;20053;-64
2023/03/25 08:46:04;;;;;;;6.13;3.22;;;;;;;;;;5051610;28;20124;-64
2023/03/25 08:48:34;;;;;;;8.70;3.50;;;;;;;;;;5051874;28;20056;-64
2023/03/25 08:51:05;;;;;;;12.45;3.38;;;;;;;;;;5034753;28;20496;-64
2023/03/25 08:53:35;;;;;;;10.80;3.60;;;;;;;;;;5051441;28;20076;-64
2023/03/25 08:56:06;;;;;;;5.70;2.60;;;;;;;;;;5051288;28;20408;-64
2023/03/25 08:58:36;;;;;;;7.07;3.00;;;;;;;;;;5051448;28;20045;-64
2023/03/25 09:01:06;;;;;;;6.65;3.60;;;;;;;;;;5051072;28;20064;-64
2023/03/25 09:03:37;;;;;;;8.85;3.83;;;;;;;;;;5018214;28;20501;-64
2023/03/25 09:06:08;;;;;;;7.30;3.95;;;;;;;;;;5018134;28;20096;-64
2023/03/25 09:08:38;;;;;;;10.02;4.00;;;;;;;;;;5017676;28;20092;-63
2023/03/25 09:11:08;;;;;;;9.00;3.95;;;;;;;;;;5001712;28;20053;-65
2023/03/25 09:13:38;;;;;;;7.30;3.88;;;;;;;;;;5005135;28;20053;-64
2023/03/25 09:16:08;;;;;;;9.70;3.88;;;;;;;;;;5021123;28;20049;-64
2023/03/25 09:18:39;;;;;;;8.65;3.97;;;;;;;;;;4990235;28;20052;-64
2023/03/25 09:21:09;;;;;;;9.25;3.65;;;;;;;;;;5037801;28;20048;-64
2023/03/25 09:23:38;;;;;;;7.03;3.00;;;;;;;;;;5054547;28;20170;-64
2023/03/25 09:26:09;;;;;;;10.48;4.03;;;;;;;;;;5054697;28;20056;-64
2023/03/25 09:28:39;;;;;;;9.05;3.92;;;;;;;;;;5073377;28;20063;-64
2023/03/25 09:31:09;;;;;;;6.75;3.80;;;;;;;;;;5021204;28;20048;-64
2023/03/25 09:33:39;;;;;;;13.07;3.70;;;;;;;;;;5073060;28;20048;-64
2023/03/25 09:36:10;;;;;;;7.55;3.67;;;;;;;;;;5005318;28;20060;-66
2023/03/25 09:38:40;;;;;;;8.68;2.95;;;;;;;;;;5020937;28;20075;-64
2023/03/25 09:41:28;;;;;;;11.65;3.80;;;;;;;;;;5020847;28;20055;-64
2023/03/25 09:44:18;;;;;;;12.07;3.30;;;;;;;;;;5072844;28;20040;-64
2023/03/25 09:46:49;;;;;;;9.30;4.10;;;;;;;;;;5010571;28;20521;-65
2023/03/25 09:49:24;;;;;;;8.65;3.72;;;;;;;;;;5010667;28;20054;-63
2023/03/25 09:51:55;;;;;;;11.20;3.75;;;;;;;;;;5010564;28;20056;-64
2023/03/25 09:54:40;;;;;;;9.65;4.05;;;;;;;;;;5010626;28;20493;-64
2023/03/25 09:57:17;;;;;;;7.75;3.17;;;;;;;;;;4994065;28;20453;-64
2023/03/25 09:59:50;;;;;;;7.50;3.80;;;;;;;;;;5010492;28;20057;-64
2023/03/25 10:02:55;;;;;;;6.78;3.60;;;;;;;;;;5010828;28;20185;-64
2023/03/25 10:05:27;;;;;;;6.60;4.00;;;;;;;;;;4971294;28;20070;-64
2023/03/25 10:08:28;;;;;;;10.95;4.03;;;;;;;;;;4955199;28;20050;-63
2023/03/25 10:11:11;;;;;;;10.13;4.20;;;;;;;;;;4923790;28;20051;-64
2023/03/25 10:14:16;;;;;;;9.43;4.43;;;;;;;;;;4939040;28;20066;-64
2023/03/25 10:17:04;;;;;;;12.50;4.93;;;;;;;;;;4970838;28;20042;-64
2023/03/25 10:19:53;;;;;;;9.15;5.38;;;;;;;;;;4939129;28;20066;-64
2023/03/25 10:22:35;;;;;;;8.93;4.75;;;;;;;;;;4971189;28;20062;-64
2023/03/25 10:25:14;;;;;;;9.70;4.90;;;;;;;;;;4974814;28;20458;-64
2023/03/25 10:27:48;;;;;;;7.53;4.10;;;;;;;;;;4974689;28;20495;-64
2023/03/25 10:30:22;;;;;;;9.70;4.75;;;;;;;;;;4958346;28;20521;-64
2023/03/25 10:32:58;;;;;;;8.05;3.67;;;;;;;;;;4990303;28;20058;-64
2023/03/25 10:35:37;;;;;;;12.98;4.53;;;;;;;;;;4973548;28;20545;-64
2023/03/25 10:38:20;;;;;;;12.05;5.70;;;;;;;;;;4990315;28;20156;-64
2023/03/25 10:40:55;;;;;;;7.82;4.22;;;;;;;;;;5038250;28;20053;-64
2023/03/25 10:43:39;;;;;;;10.05;4.35;;;;;;;;;;5020402;28;20504;-65
2023/03/25 10:46:26;;;;;;;10.90;4.65;;;;;;;;;;5020406;28;20056;-64
2023/03/25 10:48:56;;;;;;;8.30;4.38;;;;;;;;;;5069422;28;20041;-64
2023/03/25 10:51:36;;;;;;;6.25;4.55;;;;;;;;;;5019475;28;20048;-64
2023/03/25 10:54:09;;;;;;;8.10;3.35;;;;;;;;;;5071132;28;20044;-66
2023/03/25 10:56:47;;;;;;;11.20;5.18;;;;;;;;;;5071249;28;20032;-65
2023/03/25 10:59:20;;;;;;;12.23;4.70;;;;;;;;;;5033625;28;20055;-64
2023/03/25 11:01:52;;;;;;;9.65;4.50;;;;;;;;;;5071590;28;20032;-65
2023/03/25 11:04:36;;;;;;;5.80;4.20;;;;;;;;;;5037213;28;20496;-64
2023/03/25 11:07:19;;;;;;;8.50;4.75;;;;;;;;;;5002771;28;20060;-64
2023/03/25 11:09:50;;;;;;;6.07;4.18;;;;;;;;;;5020968;28;20507;-64
2023/03/25 11:12:21;;;;;;;10.52;5.95;;;;;;;;;;5052455;28;20519;-64
2023/03/25 11:15:21;;;;;;;12.90;4.78;;;;;;;;;;5018832;28;20056;-65
2023/03/25 11:18:17;;;;;;;11.63;4.85;;;;;;;;;;5069603;28;20044;-65
2023/03/25 11:20:56;;;;;;;9.93;4.28;;;;;;;;;;5004698;28;20075;-66
2023/03/25 11:23:36;;;;;;;10.20;4.32;;;;;;;;;;5009141;28;20062;-65
2023/03/25 11:26:29;;;;;;;7.97;4.03;;;;;;;;;;5009302;28;20061;-65
2023/03/25 11:29:08;;;;;;;7.88;4.30;;;;;;;;;;5018370;28;20056;-64
2023/03/25 11:31:40;;;;;;;15.85;5.20;;;;;;;;;;5028942;28;20068;-64
2023/03/25 11:34:20;;;;;;;12.27;4.82;;;;;;;;;;5028230;28;20050;-65
2023/03/25 11:37:00;;;;;;;10.63;4.97;;;;;;;;;;4979223;28;20046;-64
2023/03/25 11:39:41;;;;;;;13.00;5.00;;;;;;;;;;5011871;28;20157;-65
2023/03/25 11:42:17;;;;;;;8.90;4.93;;;;;;;;;;5028950;28;20045;-65
2023/03/25 11:44:52;;;;;;;10.98;4.40;;;;;;;;;;5028714;28;20057;-65
2023/03/25 11:47:29;;;;;;;17.30;5.22;;;;;;;;;;4989639;28;20063;-66
2023/03/25 11:50:00;;;;;;;9.55;5.20;;;;;;;;;;4957534;28;20560;-65
2023/03/25 11:52:43;;;;;;;11.57;5.43;;;;;;;;;;4926069;28;20194;-65
2023/03/25 11:55:29;;;;;;;17.20;5.90;;;;;;;;;;4955639;28;20057;-65
2023/03/25 11:58:00;;;;;;;15.55;5.75;;;;;;;;;;5028404;28;20057;-65
2023/03/25 12:00:34;;;;;;;15.13;6.72;;;;;;;;;;4980760;28;20496;-65
2023/03/25 12:03:12;;;;;;;16.95;5.75;;;;;;;;;;5028785;28;20041;-62
2023/03/25 12:05:42;;;;;;;12.25;6.47;;;;;;;;;;5004209;28;20464;-62
2023/03/25 12:08:14;;;;;;;12.13;5.55;;;;;;;;;;4992699;28;20054;-63
2023/03/25 12:10:59;;;;;;;17.95;6.15;;;;;;;;;;4971507;28;20049;-61
2023/03/25 12:13:35;;;;;;;14.65;7.22;;;;;;;;;;4972086;28;20046;-63
2023/03/25 12:16:23;;;;;;;14.18;6.70;;;;;;;;;;5015282;28;20057;-61
2023/03/25 12:19:21;;;;;;;14.70;6.60;;;;;;;;;;5012147;28;20057;-61
2023/03/25 12:21:57;;;;;;;20.02;5.10;;;;;;;;;;5012441;28;20077;-62
2023/03/25 12:24:52;;;;;;;12.48;5.22;;;;;;;;;;5030534;28;20059;-67
2023/03/25 12:27:28;;;;;;;19.60;7.00;;;;;;;;;;5073532;28;20036;-62
2023/03/25 12:30:30;;;;;;;13.70;5.95;;;;;;;;;;5073541;28;20052;-63
2023/03/25 12:33:20;;;;;;;17.23;6.43;;;;;;;;;;4945376;28;20066;-63
2023/03/25 12:36:15;;;;;;;15.98;5.60;;;;;;;;;;4953541;29;20055;-62
2023/03/25 12:39:06;;;;;;;6.63;4.28;;;;;;;;;;4953740;29;20047;-61
2023/03/25 12:41:45;;;;;;;6.15;4.32;;;;;;;;;;4933603;29;20056;-62
2023/03/25 12:44:36;;;;;;;7.28;3.17;;;;;;;;;;4934050;29;20051;-64
2023/03/25 12:47:35;;;;;;;7.57;3.28;;;;;;;;;;4933447;29;20407;-66
2023/03/25 12:50:17;;;;;;;5.53;3.53;;;;;;;;;;4932791;29;20060;-62
2023/03/25 12:52:59;;;;;;;7.25;3.53;;;;;;;;;;4933941;29;20059;-63
2023/03/25 12:55:40;;;;;;;5.28;3.30;;;;;;;;;;4911460;29;20053;-63
2023/03/25 12:58:54;;;;;;;9.00;3.85;;;;;;;;;;4864761;29;20064;-65
2023/03/25 13:01:45;;;;;;;6.63;4.22;;;;;;;;;;4858989;29;20094;-65
2023/03/25 13:04:17;;;;;;;7.07;4.50;;;;;;;;;;4855419;29;20072;-63
2023/03/25 13:06:58;;;;;;;5.80;3.85;;;;;;;;;;4824780;29;20045;-64
2023/03/25 13:09:31;;;;;;;10.75;4.05;;;;;;;;;;4829901;29;20403;-64
2023/03/25 13:12:14;;;;;;;4.90;3.00;;;;;;;;;;4858297;29;20066;-64
2023/03/25 13:14:53;;;;;;;5.18;3.05;;;;;;;;;;4843757;29;20511;-64
2023/03/25 13:17:33;;;;;;;8.85;4.63;;;;;;;;;;4858721;29;20060;-64
2023/03/25 13:20:09;;;;;;;8.65;5.20;;;;;;;;;;4858504;29;20069;-64
2023/03/25 13:22:46;;;;;;;8.30;3.10;;;;;;;;;;4858272;29;20065;-64
2023/03/25 13:25:30;;;;;;;8.80;3.03;;;;;;;;;;4858473;29;20061;-63
2023/03/25 13:28:03;;;;;;;5.28;3.00;;;;;;;;;;4858631;29;20066;-63
2023/03/25 13:30:37;;;;;;;8.07;3.70;;;;;;;;;;4858404;29;20049;-63
2023/03/25 13:33:20;;;;;;;8.27;3.97;;;;;;;;;;4886377;29;20064;-64
2023/03/25 13:36:09;;;;;;;5.72;3.10;;;;;;;;;;4899298;29;20080;-63
2023/03/25 13:38:48;;;;;;;6.28;2.42;;;;;;;;;;4955822;28;20042;-63
2023/03/25 13:41:37;;;;;;;6.57;3.55;;;;;;;;;;5011176;28;20062;-64
2023/03/25 13:44:40;;;;;;;6.60;3.50;;;;;;;;;;5011059;28;20433;-64
2023/03/25 13:47:45;;;;;;;16.67;10.45;;;;;;;;;;5029899;28;20714;-64
2023/03/25 13:50:18;;;;;;;6.40;3.30;;;;;;;;;;4971937;28;20057;-63
2023/03/25 13:52:53;;;;;;;5.60;3.45;;;;;;;;;;4971792;28;20055;-64
2023/03/25 13:55:35;;;;;;;5.80;2.50;;;;;;;;;;4971743;28;20076;-64
2023/03/25 13:58:33;;;;;;;9.60;4.00;;;;;;;;;;4971807;28;20059;-63
2023/03/25 14:01:37;;;;;;;4.97;2.92;;;;;;;;;;4971561;28;20526;-63
2023/03/25 14:04:19;;;;;;;5.60;2.35;;;;;;;;;;4938286;28;20089;-63
2023/03/25 14:07:22;;;;;;;4.00;2.75;;;;;;;;;;4987381;28;20533;-65
2023/03/25 14:09:53;;;;;;;;;;;;;;;;;;4939540;28;20047;-62
2023/03/25 14:12:35;;;;;;;6.50;2.80;;;;;;;;;;4955443;28;19922;-62
2023/03/25 14:15:27;;;;;;;4.78;3.00;;;;;;;;;;4971313;28;20455;-62
2023/03/25 14:17:58;;;;;;;5.47;3.25;;;;;;;;;;4971198;28;20070;-64
2023/03/25 14:20:36;;;;;;;5.82;3.00;;;;;;;;;;4923336;28;20055;-62
2023/03/25 14:23:17;;;;;;;11.85;4.70;;;;;;;;;;4939707;28;20059;-63
2023/03/25 14:25:56;;;;;;;7.50;3.42;;;;;;;;;;5071996;28;20041;-63
2023/03/25 14:28:43;;;;;;;5.63;3.03;;;;;;;;;;5072220;28;20040;-64
2023/03/25 14:31:13;;;;;;;6.18;3.30;;;;;;;;;;5019973;28;20071;-63
2023/03/25 14:34:01;;;;;;;5.88;2.80;;;;;;;;;;5019500;28;20086;-63
2023/03/25 14:36:41;;;;;;;4.40;2.42;;;;;;;;;;5071899;28;20507;-63
2023/03/25 14:39:30;;;;;;;4.95;2.55;;;;;;;;;;5071708;28;20037;-63
2023/03/25 14:42:07;;;;;;;4.43;2.70;;;;;;;;;;5036670;28;20071;-62
2023/03/25 14:44:41;;;;;;;5.72;2.85;;;;;;;;;;5071218;28;20045;-62
2023/03/25 14:47:20;;;;;;;4.43;2.28;;;;;;;;;;5071621;28;20083;-64
2023/03/25 14:50:09;;;;;;;3.90;2.25;;;;;;;;;;5017791;28;20051;-65
2023/03/25 14:52:49;;;;;;;7.50;2.78;;;;;;;;;;5071604;28;20405;-63
2023/03/25 14:55:18;;;;;;;6.63;2.50;;;;;;;;;;5071714;28;20516;-63
2023/03/25 14:57:51;;;;;;;3.47;1.70;;;;;;;;;;5054204;28;20064;-65
2023/03/25 15:00:25;;;;;;;5.53;1.80;;;;;;;;;;5071578;28;20511;-64
2023/03/25 15:03:32;;;;;;;5.38;2.17;;;;;;;;;;5034456;28;20556;-64
2023/03/25 15:06:03;;;;;;;5.60;1.67;;;;;;;;;;4970071;28;20063;-65
2023/03/25 15:08:38;;;;;;;4.40;1.55;;;;;;;;;;4970629;28;20055;-64
2023/03/25 15:11:15;;;;;;;5.53;1.65;;;;;;;;;;4954430;28;20055;-65
2023/03/25 15:13:52;;;;;;;;;;;;;;;;;;4970996;28;20043;-64
2023/03/25 15:16:48;;;;;;;5.75;2.10;;;;;;;;;;4970348;28;19922;-65
2023/03/25 15:19:18;;;;;;;;;;;;;;;;;;4939072;28;20063;-64
2023/03/25 15:22:16;;;;;;;4.55;2.10;;;;;;;;;;4970637;28;20347;-65
2023/03/25 15:24:57;;;;;;;3.72;2.20;;;;;;;;;;4938458;28;20070;-65
2023/03/25 15:27:46;;;;;;;4.68;2.63;;;;;;;;;;4970360;28;20059;-64
2023/03/25 15:31:08;;;;;;;3.92;1.92;;;;;;;;;;4906784;28;20057;-64
2023/03/25 15:34:07;;;;;;;3.83;1.88;;;;;;;;;;4881359;29;20378;-65
2023/03/25 15:37:14;;;;;;;3.70;1.70;;;;;;;;;;4838227;29;20446;-63
2023/03/25 15:40:26;;;;;;;3.05;2.05;;;;;;;;;;4823356;29;20061;-64